Time;durP1;ratioP1;P1;durP2;ratioP2;P2;SDS_P1;SDS_P2;PMS_P1;PMS_P2;Temp;Humidity;BMP_temperature;BMP_pressure;BME280_temperature;BME280_humidity;BME280_pressure;Samples;Min_cycle;Max_cycle;Signal;HPM_P1;HPM_P2
2021/05/08 00:02:13;;;;;;;3.03;2.20;;;20.80;83.20;;;;;;5094072;28;20479;-65
2021/05/08 00:04:40;;;;;;;2.95;1.55;;;21.00;82.40;;;;;;5103981;28;20124;-64
2021/05/08 00:07:07;;;;;;;6.32;3.25;;;21.20;80.90;;;;;;5104459;28;20032;-67
2021/05/08 00:09:34;;;;;;;4.10;2.28;;;21.40;78.60;;;;;;5102353;28;20020;-67
2021/05/08 00:12:02;;;;;;;3.45;2.35;;;21.60;78.00;;;;;;5097798;28;20145;-67
2021/05/08 00:14:29;;;;;;;3.63;2.53;;;21.70;77.50;;;;;;5105564;28;20027;-66
2021/05/08 00:16:56;;;;;;;2.80;1.80;;;21.70;78.00;;;;;;5106154;28;20020;-66
2021/05/08 00:19:26;;;;;;;3.03;1.50;;;21.90;76.70;;;;;;5105517;28;20134;-71
2021/05/08 00:21:56;;;;;;;3.22;1.60;;;22.00;76.90;;;;;;5104271;28;20042;-62
2021/05/08 00:24:24;;;;;;;3.72;2.08;;;22.20;76.90;;;;;;5078733;28;20533;-65
2021/05/08 00:26:51;;;;;;;2.88;1.30;;;22.30;74.60;;;;;;5108058;28;20058;-67
2021/05/08 00:29:18;;;;;;;1.40;1.20;;;22.30;75.60;;;;;;5107410;28;20043;-68
2021/05/08 00:31:46;;;;;;;3.13;1.55;;;22.30;74.60;;;;;;5102080;28;20638;-65
2021/05/08 00:34:13;;;;;;;2.50;1.58;;;22.30;74.30;;;;;;5106935;28;20028;-65
2021/05/08 00:36:40;;;;;;;2.10;1.35;;;22.40;74.80;;;;;;5106907;28;20039;-63
2021/05/08 00:39:07;;;;;;;2.10;1.17;;;22.60;73.10;;;;;;5105375;28;20046;-67
2021/05/08 00:41:36;;;;;;;1.63;1.10;;;22.90;72.80;;;;;;5113065;28;20031;-67
2021/05/08 00:44:04;;;;;;;1.58;1.13;;;23.10;69.90;;;;;;5103975;28;20085;-68
2021/05/08 00:46:32;;;;;;;5.47;2.00;;;23.10;70.80;;;;;;5087019;28;20478;-69
2021/05/08 00:48:59;;;;;;;1.50;1.30;;;23.30;70.40;;;;;;5105410;28;20030;-66
2021/05/08 00:51:30;;;;;;;3.35;1.30;;;23.40;69.40;;;;;;5105376;28;20615;-63
2021/05/08 00:54:00;;;;;;;2.00;1.25;;;23.60;71.00;;;;;;5105302;28;20110;-66
2021/05/08 00:56:27;;;;;;;1.95;1.30;;;23.90;70.60;;;;;;5106948;28;20417;-65
2021/05/08 00:58:54;;;;;;;1.95;1.33;;;24.10;69.80;;;;;;5107305;28;20046;-63
2021/05/08 01:01:22;;;;;;;2.05;1.20;;;24.30;68.90;;;;;;5100775;28;20093;-68
2021/05/08 01:03:49;;;;;;;2.58;1.50;;;24.20;68.00;;;;;;5108416;28;20039;-64
2021/05/08 01:06:17;;;;;;;5.47;1.38;;;24.10;68.60;;;;;;5107588;28;20106;-71
2021/05/08 01:08:44;;;;;;;4.72;1.13;;;24.00;69.60;;;;;;5106230;28;20031;-65
2021/05/08 01:11:12;;;;;;;1.92;1.10;;;23.90;68.00;;;;;;5105916;28;20026;-66
2021/05/08 01:13:40;;;;;;;1.70;0.90;;;23.80;69.00;;;;;;5086530;28;20118;-65
2021/05/08 01:16:07;;;;;;;1.95;1.17;;;23.60;67.60;;;;;;5108456;28;20023;-67
2021/05/08 01:18:34;;;;;;;1.90;1.20;;;23.40;67.70;;;;;;5108696;28;20174;-64
2021/05/08 01:21:02;;;;;;;11.48;8.45;;;23.30;68.30;;;;;;5108377;28;20108;-64
2021/05/08 01:23:30;;;;;;;7.03;4.60;;;23.30;70.00;;;;;;5095374;22;20082;-64
2021/05/08 01:25:57;;;;;;;9.40;6.60;;;23.20;71.00;;;;;;5086859;28;20024;-63
2021/05/08 01:28:27;;;;;;;4.57;3.55;;;23.40;69.40;;;;;;5087932;28;20028;-68
2021/05/08 01:30:55;;;;;;;2.55;1.70;;;23.70;69.50;;;;;;5081809;28;20032;-63
2021/05/08 01:33:22;;;;;;;5.75;3.30;;;24.10;66.50;;;;;;5088129;28;20035;-63
2021/05/08 01:35:49;;;;;;;2.83;1.30;;;24.10;66.30;;;;;;5088308;28;20455;-67
2021/05/08 01:38:18;;;;;;;4.05;1.35;;;24.00;64.80;;;;;;5088135;28;20039;-68
2021/05/08 01:40:45;;;;;;;3.67;2.67;;;23.80;65.30;;;;;;5088838;28;20400;-64
2021/05/08 01:43:12;;;;;;;5.90;2.13;;;23.80;66.60;;;;;;5086101;28;20020;-66
2021/05/08 01:45:40;;;;;;;2.90;1.48;;;23.90;66.90;;;;;;5086196;28;20027;-63
2021/05/08 01:48:09;;;;;;;2.78;1.55;;;24.10;63.90;;;;;;5088902;28;20025;-69
2021/05/08 01:50:37;;;;;;;3.17;2.53;;;24.30;64.00;;;;;;5088999;28;20043;-69
2021/05/08 01:53:04;;;;;;;3.47;1.30;;;24.60;65.60;;;;;;5089629;28;20055;-72
2021/05/08 01:55:31;;;;;;;2.33;1.52;;;24.90;64.20;;;;;;5089606;28;20472;-64
2021/05/08 01:57:59;;;;;;;2.00;1.60;;;25.30;63.90;;;;;;5087261;28;20521;-66
2021/05/08 02:00:36;;;;;;;3.50;2.35;;;25.50;61.10;;;;;;5087910;28;20036;-69
2021/05/08 02:03:04;;;;;;;4.22;2.22;;;25.70;60.60;;;;;;5084190;28;20415;-68
2021/05/08 02:05:33;;;;;;;2.90;1.80;;;25.90;58.00;;;;;;5068383;28;20115;-69
2021/05/08 02:08:03;;;;;;;2.38;1.60;;;26.00;58.60;;;;;;5089367;28;20768;-68
2021/05/08 02:10:31;;;;;;;4.40;3.03;;;26.10;57.40;;;;;;5074747;28;20024;-66
2021/05/08 02:13:01;;;;;;;1.77;1.30;;;26.10;58.70;;;;;;5080845;28;20068;-64
2021/05/08 02:15:28;;;;;;;3.78;2.88;;;26.10;57.20;;;;;;5089245;28;20085;-69
2021/05/08 02:17:56;;;;;;;2.75;2.00;;;26.00;57.30;;;;;;5087207;28;20032;-68
2021/05/08 02:20:28;;;;;;;2.20;1.80;;;25.90;58.40;;;;;;5092759;28;20016;-68
2021/05/08 02:23:01;;;;;;;2.83;1.50;;;25.80;59.20;;;;;;5089376;28;20053;-65
2021/05/08 02:25:28;;;;;;;4.07;1.58;;;25.70;58.00;;;;;;5088363;28;20023;-66
2021/05/08 02:27:59;;;;;;;4.53;2.47;;;25.80;59.20;;;;;;5088639;28;20012;-65
2021/05/08 02:30:31;;;;;;;3.42;2.95;;;25.80;58.50;;;;;;5088735;28;20024;-68
2021/05/08 02:32:59;;;;;;;3.80;3.10;;;25.70;57.90;;;;;;5101229;28;20122;-69
2021/05/08 02:35:27;;;;;;;5.28;2.60;;;25.60;59.80;;;;;;5108706;28;20027;-68
2021/05/08 02:37:56;;;;;;;2.88;2.55;;;25.80;60.00;;;;;;5108920;28;20027;-68
2021/05/08 02:40:29;;;;;;;6.25;3.85;;;26.00;59.60;;;;;;5107800;28;20063;-68
2021/05/08 02:42:58;;;;;;;7.63;2.42;;;26.40;58.80;;;;;;5102748;28;20154;-71
2021/05/08 02:45:25;;;;;;;3.22;1.60;;;26.50;57.50;;;;;;5107731;28;20019;-65
2021/05/08 02:47:56;;;;;;;2.08;1.58;;;26.70;55.90;;;;;;5107929;28;20073;-67
2021/05/08 02:50:26;;;;;;;3.58;1.65;;;26.40;57.50;;;;;;5107407;28;20019;-65
2021/05/08 02:52:55;;;;;;;2.42;1.60;;;26.30;58.90;;;;;;5075242;28;20059;-66
2021/05/08 02:55:26;;;;;;;2.63;1.60;;;26.10;59.40;;;;;;5091523;28;20021;-67
2021/05/08 02:58:01;;;;;;;3.47;1.40;;;25.80;60.60;;;;;;5073235;28;20039;-69
2021/05/08 03:00:29;;;;;;;4.47;1.60;;;25.30;60.80;;;;;;5095465;28;20107;-71
2021/05/08 03:02:56;;;;;;;4.95;1.88;;;25.20;61.60;;;;;;5074181;28;20531;-71
2021/05/08 03:05:26;;;;;;;2.72;1.58;;;25.40;60.20;;;;;;5075271;28;20357;-71
2021/05/08 03:07:54;;;;;;;5.13;2.10;;;25.90;58.80;;;;;;5090516;28;20028;-70
2021/05/08 03:10:21;;;;;;;3.53;1.65;;;26.20;58.30;;;;;;5094260;28;20509;-69
2021/05/08 03:12:48;;;;;;;3.95;1.40;;;26.30;57.80;;;;;;5093024;28;20040;-67
2021/05/08 03:15:16;;;;;;;46.75;11.20;;;26.50;56.40;;;;;;5094106;28;20020;-70
2021/05/08 03:17:43;;;;;;;3.40;1.70;;;26.50;57.60;;;;;;5094064;28;20011;-67
2021/05/08 03:20:11;;;;;;;4.40;1.52;;;26.60;54.70;;;;;;5093223;28;20481;-69
2021/05/08 03:22:39;;;;;;;2.60;1.45;;;26.70;54.90;;;;;;5090483;28;20040;-68
2021/05/08 03:25:06;;;;;;;1.58;1.20;;;26.70;55.10;;;;;;5090995;28;20020;-69
2021/05/08 03:27:34;;;;;;;2.80;1.60;;;26.70;54.30;;;;;;5090687;28;20090;-67
2021/05/08 03:30:01;;;;;;;3.60;2.08;;;26.80;53.90;;;;;;5092561;28;20032;-68
2021/05/08 03:32:31;;;;;;;2.10;1.65;;;27.00;53.50;;;;;;5093192;28;20046;-67
2021/05/08 03:35:01;;;;;;;4.50;1.65;;;27.10;52.40;;;;;;5095075;28;20068;-67
2021/05/08 03:37:28;;;;;;;3.53;1.70;;;26.90;53.70;;;;;;5074309;28;20019;-74
2021/05/08 03:39:56;;;;;;;2.00;1.55;;;26.60;53.40;;;;;;5094237;28;20016;-74
2021/05/08 03:42:23;;;;;;;2.45;1.40;;;26.60;54.80;;;;;;5092389;28;20322;-64
2021/05/08 03:44:50;;;;;;;2.75;1.98;;;26.70;54.90;;;;;;5090969;28;20055;-74
2021/05/08 03:47:17;;;;;;;2.97;1.40;;;26.90;53.70;;;;;;5092422;28;20031;-75
2021/05/08 03:49:45;;;;;;;3.03;1.40;;;27.00;52.70;;;;;;5092936;28;20078;-62
2021/05/08 03:52:12;;;;;;;6.20;1.70;;;27.20;52.20;;;;;;5093777;28;20036;-72
2021/05/08 03:54:39;;;;;;;3.55;1.55;;;27.00;53.00;;;;;;5071488;28;20123;-67
2021/05/08 03:57:07;;;;;;;2.20;1.60;;;27.10;54.10;;;;;;5075148;28;20024;-67
2021/05/08 03:59:37;;;;;;;4.18;2.05;;;27.00;53.00;;;;;;5097656;28;20103;-69
2021/05/08 04:02:07;;;;;;;5.75;4.85;;;27.10;54.00;;;;;;5097114;28;20542;-78
2021/05/08 04:04:40;;;;;;;5.20;3.50;;;27.00;52.80;;;;;;5076906;28;20024;-69
2021/05/08 04:07:08;;;;;;;4.25;2.10;;;26.80;55.00;;;;;;5095069;28;20430;-68
2021/05/08 04:09:38;;;;;;;4.35;3.15;;;26.80;54.40;;;;;;5077584;28;20039;-68
2021/05/08 04:12:08;;;;;;;4.32;3.40;;;26.70;55.20;;;;;;5094594;28;20395;-70
2021/05/08 04:14:38;;;;;;;5.95;4.85;;;26.50;55.10;;;;;;5093889;28;20162;-65
2021/05/08 04:17:08;;;;;;;1.92;1.30;;;26.40;56.10;;;;;;5094283;28;20024;-70
2021/05/08 04:19:38;;;;;;;36.65;8.18;;;26.30;53.90;;;;;;5089372;28;20020;-63
2021/05/08 04:22:10;;;;;;;4.88;2.10;;;26.40;55.30;;;;;;5070974;28;20163;-69
2021/05/08 04:24:37;;;;;;;3.05;1.90;;;26.60;53.70;;;;;;5092817;28;20989;-62
2021/05/08 04:27:05;;;;;;;3.60;1.95;;;26.80;54.80;;;;;;5090810;28;20055;-66
2021/05/08 04:29:32;;;;;;;3.33;1.60;;;26.90;53.80;;;;;;5092536;28;20024;-66
2021/05/08 04:32:00;;;;;;;3.95;1.63;;;27.10;54.90;;;;;;5089846;28;20050;-68
2021/05/08 04:34:27;;;;;;;1.70;1.48;;;27.30;54.50;;;;;;5092274;28;20038;-64
2021/05/08 04:36:54;;;;;;;2.58;1.45;;;27.40;51.60;;;;;;5091260;28;20055;-63
2021/05/08 04:39:23;;;;;;;3.15;1.60;;;27.30;53.40;;;;;;5090470;28;20013;-69
2021/05/08 04:41:51;;;;;;;2.75;1.30;;;27.30;53.50;;;;;;5091283;28;20173;-72
2021/05/08 04:44:18;;;;;;;3.42;1.40;;;27.50;52.80;;;;;;5091463;28;20070;-71
2021/05/08 04:46:47;;;;;;;1.42;1.13;;;27.60;52.50;;;;;;5074073;28;20031;-67
2021/05/08 04:49:15;;;;;;;3.72;1.40;;;27.30;50.90;;;;;;5090378;28;20310;-68
2021/05/08 04:51:48;;;;;;;1.63;1.40;;;27.00;52.40;;;;;;5095056;28;20035;-72
2021/05/08 04:54:15;;;;;;;6.45;3.35;;;26.50;53.30;;;;;;5077724;28;20067;-68
2021/05/08 04:56:42;;;;;;;4.22;1.58;;;26.20;55.20;;;;;;5096168;28;20480;-72
2021/05/08 04:59:10;;;;;;;2.10;1.20;;;26.00;54.10;;;;;;5096964;28;20650;-72
2021/05/08 05:01:37;;;;;;;3.15;1.67;;;25.80;55.00;;;;;;5093756;28;20036;-72
2021/05/08 05:04:04;;;;;;;4.25;1.42;;;25.80;54.90;;;;;;4379777;28;10000631;-71
2021/05/08 05:06:32;;;;;;;4.15;1.23;;;25.80;55.50;;;;;;5098795;28;20533;-66
2021/05/08 05:08:59;;;;;;;2.97;1.50;;;25.80;55.50;;;;;;5082823;28;20038;-72
2021/05/08 05:11:26;;;;;;;2.03;1.33;;;25.80;55.40;;;;;;5086981;28;20157;-73
2021/05/08 05:13:54;;;;;;;3.45;1.40;;;25.80;56.10;;;;;;5080463;28;20555;-69
2021/05/08 05:16:21;;;;;;;4.50;1.33;;;25.70;55.70;;;;;;5094232;28;20106;-69
2021/05/08 05:18:48;;;;;;;1.33;1.23;;;25.60;52.80;;;;;;5075467;28;20039;-66
2021/05/08 05:21:16;;;;;;;2.83;0.95;;;25.40;50.30;;;;;;5091571;28;20040;-65
2021/05/08 05:23:43;;;;;;;2.42;1.88;;;25.40;47.60;;;;;;5095154;28;20110;-73
2021/05/08 05:26:10;;;;;;;2.17;1.30;;;25.80;47.60;;;;;;5096629;28;20031;-65
2021/05/08 05:28:37;;;;;;;2.45;0.80;;;26.10;45.50;;;;;;5097565;28;20051;-65
2021/05/08 05:31:05;;;;;;;3.72;1.20;;;26.30;43.40;;;;;;5097642;28;20024;-65
2021/05/08 05:33:32;;;;;;;0.73;0.55;;;26.60;43.70;;;;;;5104627;28;20045;-72
2021/05/08 05:35:59;;;;;;;1.00;0.68;;;26.80;43.40;;;;;;5101993;28;20085;-64
2021/05/08 05:38:26;;;;;;;4.57;1.27;;;26.90;43.30;;;;;;5103644;28;20027;-66
2021/05/08 05:40:55;;;;;;;2.75;1.65;;;26.90;42.00;;;;;;5099490;28;20024;-65
2021/05/08 05:43:22;;;;;;;2.55;1.25;;;26.60;42.00;;;;;;5100355;28;20085;-67
2021/05/08 05:45:52;;;;;;;1.23;0.82;;;26.50;42.00;;;;;;5100370;28;20019;-69
2021/05/08 05:48:23;;;;;;;1.67;0.82;;;26.60;41.00;;;;;;5102123;28;20038;-67
2021/05/08 05:50:53;;;;;;;2.95;0.90;;;26.50;41.70;;;;;;5101742;28;20043;-67
2021/05/08 05:53:23;;;;;;;1.60;0.57;;;26.40;42.30;;;;;;5097778;28;20535;-70
2021/05/08 05:55:50;;;;;;;3.72;0.65;;;26.20;43.90;;;;;;5100165;28;20028;-64
2021/05/08 05:58:17;;;;;;;1.40;0.80;;;25.90;43.70;;;;;;5097743;28;20553;-63
2021/05/08 06:00:45;;;;;;;0.90;0.50;;;25.50;45.30;;;;;;5089881;28;20027;-66
2021/05/08 06:03:12;;;;;;;0.65;0.63;;;25.20;44.20;;;;;;5091534;28;20020;-68
2021/05/08 06:05:39;;;;;;;3.05;0.77;;;24.90;44.50;;;;;;5080967;28;20034;-63
2021/05/08 06:08:10;;;;;;;4.78;2.58;;;24.60;45.10;;;;;;5099565;28;20035;-63
2021/05/08 06:10:37;;;;;;;3.20;1.00;;;24.50;44.50;;;;;;5095278;28;20113;-70
2021/05/08 06:13:05;;;;;;;1.63;0.80;;;24.70;44.20;;;;;;5091182;28;20020;-64
2021/05/08 06:15:32;;;;;;;1.85;0.65;;;24.70;43.70;;;;;;5090231;28;20089;-66
2021/05/08 06:17:59;;;;;;;4.43;1.02;;;24.40;44.50;;;;;;5091048;28;20078;-70
2021/05/08 06:20:27;;;;;;;8.25;3.58;;;24.10;46.00;;;;;;5096274;28;20092;-67
2021/05/08 06:22:56;;;;;;;2.50;0.85;;;23.80;46.10;;;;;;5077770;28;20043;-65
2021/05/08 06:25:23;;;;;;;2.47;1.13;;;23.60;45.70;;;;;;5096386;28;20047;-68
2021/05/08 06:27:53;;;;;;;1.25;0.70;;;23.40;46.60;;;;;;5096052;28;20376;-72
2021/05/08 06:30:20;;;;;;;2.30;0.95;;;23.30;46.50;;;;;;5093355;28;20386;-63
2021/05/08 06:32:48;;;;;;;1.30;1.00;;;23.40;48.20;;;;;;5087895;28;20020;-70
2021/05/08 06:35:15;;;;;;;6.85;2.20;;;23.60;47.50;;;;;;5099034;28;20079;-69
2021/05/08 06:37:42;;;;;;;1.98;1.10;;;23.80;48.80;;;;;;5095810;28;20035;-70
2021/05/08 06:40:10;;;;;;;1.85;0.90;;;23.80;49.10;;;;;;5089624;28;20577;-70
2021/05/08 06:42:37;;;;;;;1.40;1.02;;;23.60;49.20;;;;;;5070351;28;20028;-63
2021/05/08 06:45:05;;;;;;;1.77;0.60;;;23.40;49.90;;;;;;5097960;28;20015;-68
2021/05/08 06:47:32;;;;;;;2.00;0.88;;;23.10;49.60;;;;;;5093683;28;20035;-65
2021/05/08 06:50:02;;;;;;;1.85;1.20;;;23.00;52.00;;;;;;5070046;28;20413;-70
2021/05/08 06:52:29;;;;;;;4.82;1.10;;;22.80;53.20;;;;;;5089504;28;20020;-63
2021/05/08 06:54:57;;;;;;;1.48;0.60;;;22.60;52.20;;;;;;5099215;28;20039;-66
2021/05/08 06:57:24;;;;;;;1.95;0.85;;;22.30;52.50;;;;;;5091550;28;20024;-71
2021/05/08 06:59:51;;;;;;;1.80;1.00;;;22.10;54.20;;;;;;5094271;28;20066;-72
2021/05/08 07:02:18;;;;;;;1.50;0.85;;;22.00;53.50;;;;;;5099842;28;20474;-72
2021/05/08 07:04:47;;;;;;;1.35;0.90;;;22.00;52.10;;;;;;5089554;28;20038;-71
2021/05/08 07:07:14;;;;;;;2.38;0.95;;;21.90;50.90;;;;;;5104053;28;20381;-65
2021/05/08 07:09:41;;;;;;;3.60;0.70;;;21.90;50.90;;;;;;5101512;28;20023;-70
2021/05/08 07:12:09;;;;;;;1.38;0.80;;;21.80;50.70;;;;;;5078600;28;20180;-66
2021/05/08 07:14:37;;;;;;;2.08;1.10;;;21.60;51.80;;;;;;5098612;28;20032;-67
2021/05/08 07:17:07;;;;;;;3.08;0.95;;;21.50;51.90;;;;;;5094053;28;20057;-66
2021/05/08 07:19:37;;;;;;;2.28;1.08;;;21.40;52.30;;;;;;5094052;28;20036;-64
2021/05/08 07:22:07;;;;;;;1.88;1.20;;;21.40;54.50;;;;;;5093250;28;20039;-64
2021/05/08 07:24:34;;;;;;;3.53;1.05;;;21.30;52.90;;;;;;5075957;28;20028;-71
2021/05/08 07:27:02;;;;;;;6.43;1.38;;;21.30;51.40;;;;;;5076294;28;20134;-69
2021/05/08 07:29:29;;;;;;;6.80;1.55;;;21.30;50.80;;;;;;5094566;28;20983;-65
2021/05/08 07:31:56;;;;;;;3.28;0.90;;;21.40;53.80;;;;;;5097120;28;20416;-64
2021/05/08 07:34:24;;;;;;;4.75;1.05;;;21.50;52.10;;;;;;5102880;28;20337;-69
2021/05/08 07:36:51;;;;;;;3.53;1.23;;;21.50;51.80;;;;;;5083237;28;20415;-62
2021/05/08 07:39:18;;;;;;;9.57;1.73;;;21.50;50.90;;;;;;5089333;28;20024;-66
2021/05/08 07:41:46;;;;;;;9.98;1.70;;;21.60;52.60;;;;;;5086038;28;20475;-67
2021/05/08 07:44:13;;;;;;;8.15;1.92;;;21.60;52.20;;;;;;5093318;28;20555;-67
2021/05/08 07:46:43;;;;;;;9.10;2.25;;;21.50;51.20;;;;;;5096516;28;20031;-66
2021/05/08 07:49:14;;;;;;;12.65;2.05;;;21.60;51.20;;;;;;5071345;28;20354;-67
2021/05/08 07:51:44;;;;;;;8.07;1.80;;;21.50;53.40;;;;;;5068547;28;20558;-68
2021/05/08 07:54:14;;;;;;;15.32;1.73;;;21.40;52.30;;;;;;5093574;28;20475;-65
2021/05/08 07:56:44;;;;;;;2.38;1.30;;;21.40;53.70;;;;;;5072499;28;20024;-67
2021/05/08 07:59:11;;;;;;;2.75;1.30;;;21.30;53.60;;;;;;5091754;28;20478;-67
2021/05/08 08:01:39;;;;;;;3.42;1.52;;;21.20;55.50;;;;;;5091852;28;20024;-67
2021/05/08 08:04:06;;;;;;;4.75;1.30;;;21.10;56.30;;;;;;5098948;28;20023;-67
2021/05/08 08:06:34;;;;;;;20.23;14.68;;;20.90;55.30;;;;;;5099577;28;20083;-65
2021/05/08 08:09:01;;;;;;;20.08;13.88;;;20.80;56.80;;;;;;5095642;28;20020;-65
2021/05/08 08:11:30;;;;;;;10.05;5.95;;;20.80;59.30;;;;;;5096172;28;20038;-65
2021/05/08 08:13:58;;;;;;;5.82;3.22;;;20.70;58.20;;;;;;5092097;28;20035;-66
2021/05/08 08:16:25;;;;;;;9.57;2.65;;;20.70;58.00;;;;;;5090460;28;20036;-65
2021/05/08 08:18:53;;;;;;;6.22;3.05;;;20.60;59.10;;;;;;5097783;28;20055;-67
2021/05/08 08:21:20;;;;;;;4.97;2.00;;;20.50;60.20;;;;;;5099797;28;20024;-69
2021/05/08 08:23:47;;;;;;;5.82;1.70;;;20.40;59.90;;;;;;5099510;28;20126;-72
2021/05/08 08:26:17;;;;;;;4.32;1.98;;;20.30;60.30;;;;;;5082541;28;20016;-67
2021/05/08 08:28:45;;;;;;;4.00;1.30;;;20.20;62.70;;;;;;5076610;28;20032;-68
2021/05/08 08:31:12;;;;;;;4.65;1.80;;;20.20;58.70;;;;;;5102925;28;20346;-67
2021/05/08 08:33:39;;;;;;;3.40;1.55;;;20.40;60.80;;;;;;5104113;28;20038;-72
2021/05/08 08:36:07;;;;;;;1.73;1.33;;;20.30;59.80;;;;;;5102137;28;20024;-69
2021/05/08 08:38:34;;;;;;;2.33;1.58;;;20.30;59.40;;;;;;5098210;28;20042;-67
2021/05/08 08:41:01;;;;;;;3.33;1.40;;;20.20;60.10;;;;;;5102155;28;20063;-69
2021/05/08 08:43:29;;;;;;;2.50;1.35;;;20.20;61.30;;;;;;5082582;28;20135;-71
2021/05/08 08:45:57;;;;;;;5.10;1.42;;;20.10;61.30;;;;;;5083829;28;20114;-71
2021/05/08 08:48:24;;;;;;;4.25;1.60;;;20.10;60.60;;;;;;5102405;28;20505;-64
2021/05/08 08:50:52;;;;;;;3.45;1.70;;;20.10;64.70;;;;;;5081695;28;20561;-68
2021/05/08 08:53:22;;;;;;;2.28;1.40;;;20.10;60.20;;;;;;5099836;28;20080;-72
2021/05/08 08:55:55;;;;;;;3.50;1.20;;;20.20;61.60;;;;;;5101106;28;20039;-65
2021/05/08 08:58:36;;;;;;;4.20;1.20;;;20.10;61.70;;;;;;5077363;28;20026;-70
2021/05/08 09:01:05;;;;;;;2.92;1.20;;;20.00;61.80;;;;;;5090975;28;20044;-64
2021/05/08 09:03:33;;;;;;;3.08;1.38;;;20.00;61.00;;;;;;5096134;28;20038;-69
2021/05/08 09:06:01;;;;;;;1.70;1.15;;;20.00;61.80;;;;;;5092577;28;20015;-69
2021/05/08 09:08:31;;;;;;;4.50;1.20;;;19.90;62.20;;;;;;5091686;28;20448;-71
2021/05/08 09:11:17;;;;;;;5.18;1.33;;;19.90;60.70;;;;;;5102112;28;20114;-65
2021/05/08 09:13:44;;;;;;;2.75;1.20;;;19.90;62.20;;;;;;5090271;28;20477;-64
2021/05/08 09:16:12;;;;;;;5.45;1.58;;;20.00;61.20;;;;;;5089320;28;20027;-72
2021/05/08 09:18:40;;;;;;;4.57;1.50;;;20.00;61.40;;;;;;5091602;28;20496;-70
2021/05/08 09:21:09;;;;;;;4.10;1.48;;;20.00;61.20;;;;;;5095760;28;20074;-64
2021/05/08 09:23:40;;;;;;;2.95;1.30;;;20.00;60.90;;;;;;5096447;28;20119;-64
2021/05/08 09:26:13;;;;;;;2.28;1.40;;;20.10;62.60;;;;;;5103212;28;20024;-64
2021/05/08 09:28:51;;;;;;;5.80;1.60;;;20.10;62.20;;;;;;5089904;28;20024;-68
2021/05/08 09:31:19;;;;;;;3.03;1.50;;;20.00;62.40;;;;;;5091940;28;20551;-71
2021/05/08 09:33:55;;;;;;;6.15;1.92;;;20.00;63.80;;;;;;5091804;28;20047;-70
2021/05/08 09:36:23;;;;;;;3.28;2.30;;;19.90;64.00;;;;;;5098721;28;20055;-71
2021/05/08 09:38:50;;;;;;;4.80;3.08;;;19.80;65.90;;;;;;5092674;28;20054;-67
2021/05/08 09:41:19;;;;;;;4.22;3.25;;;19.70;64.50;;;;;;5092885;28;20064;-62
2021/05/08 09:43:47;;;;;;;3.88;2.85;;;19.70;64.10;;;;;;5076580;28;20035;-64
2021/05/08 09:46:40;;;;;;;3.78;2.35;;;19.70;63.80;;;;;;5077570;28;20030;-71
2021/05/08 09:49:11;;;;;;;3.65;1.83;;;19.80;63.80;;;;;;5075876;28;20035;-64
2021/05/08 09:51:38;;;;;;;3.08;2.00;;;19.90;62.60;;;;;;5095701;28;20027;-63
2021/05/08 09:54:19;;;;;;;2.72;1.52;;;19.90;63.50;;;;;;5088346;28;20034;-63
2021/05/08 09:56:48;;;;;;;3.40;1.60;;;19.90;64.30;;;;;;5089577;28;20035;-74
2021/05/08 09:59:23;;;;;;;2.75;1.92;;;19.80;63.40;;;;;;5093739;28;20020;-72
2021/05/08 10:02:07;;;;;;;4.10;3.60;;;19.80;64.30;;;;;;5094310;28;20522;-63
2021/05/08 10:04:53;;;;;;;6.35;3.72;;;19.80;64.70;;;;;;5089305;28;20396;-63
2021/05/08 10:07:23;;;;;;;4.90;1.90;;;19.70;63.80;;;;;;5092958;28;20023;-68
2021/05/08 10:09:52;;;;;;;3.20;1.90;;;19.80;64.10;;;;;;5091389;28;20027;-68
2021/05/08 10:12:21;;;;;;;3.25;2.15;;;19.70;63.00;;;;;;5090089;28;20026;-69
2021/05/08 10:14:57;;;;;;;4.60;3.00;;;19.70;64.80;;;;;;5089925;28;20031;-64
2021/05/08 10:17:31;;;;;;;3.28;2.15;;;19.70;67.00;;;;;;5087053;28;20023;-67
2021/05/08 10:20:10;;;;;;;6.30;3.03;;;19.60;65.00;;;;;;5090828;28;20019;-64
2021/05/08 10:22:58;;;;;;;2.45;1.85;;;19.50;66.00;;;;;;5091874;28;20126;-65
2021/05/08 10:25:27;;;;;;;7.50;3.40;;;19.50;65.60;;;;;;4742677;28;10000025;-64
2021/05/08 10:27:55;;;;;;;4.18;3.00;;;19.60;66.00;;;;;;5090007;28;20024;-70
2021/05/08 10:30:27;;;;;;;3.05;2.40;;;19.60;66.50;;;;;;5101206;28;20038;-66
2021/05/08 10:32:55;;;;;;;4.80;2.55;;;19.50;65.20;;;;;;5097052;28;20131;-64
2021/05/08 10:35:47;;;;;;;8.82;2.55;;;19.50;66.70;;;;;;5091439;28;20681;-71
2021/05/08 10:38:23;;;;;;;3.92;2.63;;;19.60;65.90;;;;;;5095343;28;20066;-73
2021/05/08 10:41:02;;;;;;;6.32;3.75;;;19.50;66.20;;;;;;5091621;28;20032;-66
2021/05/08 10:43:42;;;;;;;6.93;4.25;;;19.40;66.10;;;;;;5084553;28;20043;-71
2021/05/08 10:46:17;;;;;;;7.70;3.03;;;19.30;66.20;;;;;;5070335;28;20128;-66
2021/05/08 10:49:09;;;;;;;9.38;2.83;;;19.30;65.30;;;;;;5099631;28;20019;-67
2021/05/08 10:51:57;;;;;;;7.60;2.83;;;19.30;66.20;;;;;;5090996;28;20042;-70
2021/05/08 10:54:43;;;;;;;10.85;2.28;;;19.20;66.80;;;;;;5095614;28;20055;-71
2021/05/08 10:57:28;;;;;;;11.18;3.08;;;19.20;66.70;;;;;;5097204;28;20570;-68
2021/05/08 11:00:13;;;;;;;11.68;3.00;;;19.20;67.10;;;;;;5094466;28;20513;-68
2021/05/08 11:02:43;;;;;;;9.90;2.60;;;19.10;67.60;;;;;;5099669;28;20011;-72
2021/05/08 11:05:31;;;;;;;9.57;2.88;;;19.00;68.20;;;;;;5070990;28;20077;-69
2021/05/08 11:07:59;;;;;;;8.43;2.65;;;18.90;68.40;;;;;;5091871;28;20028;-70
2021/05/08 11:10:33;;;;;;;9.63;2.47;;;18.90;68.90;;;;;;5069620;28;20028;-66
2021/05/08 11:13:14;;;;;;;9.13;2.88;;;18.90;69.60;;;;;;5094896;28;20522;-65
2021/05/08 11:16:03;;;;;;;6.50;1.85;;;18.90;69.50;;;;;;5055988;28;20740;-63
2021/05/08 11:18:43;;;;;;;6.22;1.92;;;18.90;67.70;;;;;;5086256;28;20032;-64
2021/05/08 11:21:19;;;;;;;7.05;1.95;;;18.80;68.50;;;;;;5089219;28;20020;-65
2021/05/08 11:24:01;;;;;;;4.75;1.88;;;18.70;70.00;;;;;;5071128;28;20542;-65
2021/05/08 11:26:28;;;;;;;;;;;18.70;69.30;;;;;;5101948;28;20704;-63
2021/05/08 11:28:56;;;;;;;5.82;2.08;;;18.70;69.70;;;;;;5093985;28;19959;-63
2021/05/08 11:31:32;;;;;;;2.78;1.80;;;18.60;70.30;;;;;;5093711;28;20829;-69
2021/05/08 11:34:20;;;;;;;5.25;2.13;;;18.60;70.10;;;;;;5079690;28;20853;-66
2021/05/08 11:36:59;;;;;;;6.97;4.80;;;18.50;70.00;;;;;;5073779;28;20399;-69
2021/05/08 11:39:31;;;;;;;2.85;1.85;;;18.40;71.20;;;;;;5093215;28;20035;-66
2021/05/08 11:42:00;;;;;;;3.72;2.42;;;18.30;71.00;;;;;;5074474;28;20035;-65
2021/05/08 11:44:32;;;;;;;4.70;1.90;;;18.40;70.40;;;;;;5096560;28;20072;-68
2021/05/08 11:47:00;;;;;;;;;;;18.30;70.50;;;;;;5099777;28;20439;-67
2021/05/08 11:49:36;;;;;;;3.95;1.77;;;18.30;70.80;;;;;;5093317;27;19912;-71
2021/05/08 11:52:07;;;;;;;4.28;1.90;;;18.20;71.10;;;;;;5090665;28;20035;-69
2021/05/08 11:54:43;;;;;;;3.25;1.80;;;18.30;71.00;;;;;;5100403;28;20027;-64
2021/05/08 11:57:23;;;;;;;2.95;1.38;;;18.30;71.00;;;;;;5104021;28;20031;-71
2021/05/08 11:59:54;;;;;;;3.05;1.55;;;18.30;71.50;;;;;;5103409;28;20033;-66
2021/05/08 12:02:25;;;;;;;2.75;1.30;;;18.30;72.10;;;;;;5099069;28;20066;-66
2021/05/08 12:04:54;;;;;;;3.57;1.50;;;18.20;72.10;;;;;;5075262;28;20472;-71
2021/05/08 12:07:26;;;;;;;2.88;1.70;;;18.20;72.60;;;;;;5103654;28;20250;-67
2021/05/08 12:10:12;;;;;;;1.83;1.20;;;18.20;72.50;;;;;;5076062;28;20055;-72
2021/05/08 12:12:53;;;;;;;2.05;1.35;;;18.20;72.20;;;;;;5097196;28;20077;-67
2021/05/08 12:15:40;;;;;;;2.10;1.30;;;18.00;72.70;;;;;;5101793;28;20023;-65
2021/05/08 12:18:10;;;;;;;2.20;1.27;;;18.00;72.80;;;;;;5093717;28;20031;-66
2021/05/08 12:20:38;;;;;;;2.45;1.23;;;18.00;72.80;;;;;;5085429;28;20077;-69
2021/05/08 12:23:13;;;;;;;2.63;1.30;;;18.10;72.40;;;;;;5091315;28;20035;-68
2021/05/08 12:25:40;;;;;;;4.28;2.85;;;18.20;69.60;;;;;;5098683;28;20031;-68
2021/05/08 12:28:23;;;;;;;5.20;2.95;;;18.20;70.50;;;;;;5079153;28;20030;-70
2021/05/08 12:30:52;;;;;;;6.18;2.90;;;18.30;71.00;;;;;;5078842;28;20032;-69
2021/05/08 12:33:21;;;;;;;3.15;2.22;;;18.30;69.70;;;;;;5085316;28;20040;-70
2021/05/08 12:35:50;;;;;;;3.28;1.70;;;18.20;71.20;;;;;;5101801;28;20047;-65
2021/05/08 12:38:28;;;;;;;5.40;1.80;;;18.20;70.00;;;;;;5104447;28;20050;-64
2021/05/08 12:40:59;;;;;;;2.72;1.63;;;18.20;70.40;;;;;;5095468;28;20028;-72
2021/05/08 12:43:31;;;;;;;4.30;1.88;;;18.10;71.80;;;;;;5093802;28;20020;-64
2021/05/08 12:46:12;;;;;;;6.05;2.15;;;18.10;71.00;;;;;;5093855;28;20387;-68
2021/05/08 12:48:40;;;;;;;3.05;1.38;;;18.00;72.00;;;;;;5078926;28;20032;-65
2021/05/08 12:51:26;;;;;;;2.65;1.58;;;18.10;72.70;;;;;;5102986;28;20023;-64
2021/05/08 12:54:21;;;;;;;2.33;1.55;;;17.90;73.20;;;;;;5102825;28;20031;-66
2021/05/08 12:56:50;;;;;;;4.05;1.70;;;17.80;74.70;;;;;;5078097;28;20039;-68
2021/05/08 12:59:31;;;;;;;4.30;1.48;;;17.70;75.20;;;;;;5102350;28;20028;-67
2021/05/08 13:02:15;;;;;;;2.00;1.38;;;17.70;75.60;;;;;;5074894;28;20029;-69